sensor_id;sensor_type;location;lat;lon;timestamp;P1;durP1;ratioP1;P2;durP2;ratioP2
22415;SDS011;12204;50.600;4.608;2022-08-01T00:03:48;2.55;;;0.70;;
22415;SDS011;12204;50.600;4.608;2022-08-01T00:08:53;3.83;;;0.70;;
22415;SDS011;12204;50.600;4.608;2022-08-01T00:13:57;1.73;;;0.70;;
22415;SDS011;12204;50.600;4.608;2022-08-01T00:19:01;1.80;;;0.77;;
22415;SDS011;12204;50.600;4.608;2022-08-01T00:24:06;3.75;;;0.82;;
22415;SDS011;12204;50.600;4.608;2022-08-01T00:29:16;1.70;;;0.70;;
22415;SDS011;12204;50.600;4.608;2022-08-01T00:34:40;1.73;;;0.70;;
22415;SDS011;12204;50.600;4.608;2022-08-01T00:39:45;3.28;;;0.73;;
22415;SDS011;12204;50.600;4.608;2022-08-01T00:44:48;2.97;;;0.70;;
22415;SDS011;12204;50.600;4.608;2022-08-01T00:49:52;2.08;;;0.70;;
22415;SDS011;12204;50.600;4.608;2022-08-01T00:54:57;1.67;;;0.85;;
22415;SDS011;12204;50.600;4.608;2022-08-01T01:00:00;3.95;;;0.90;;
22415;SDS011;12204;50.600;4.608;2022-08-01T01:05:05;5.70;;;0.95;;
22415;SDS011;12204;50.600;4.608;2022-08-01T01:10:15;7.60;;;0.90;;
22415;SDS011;12204;50.600;4.608;2022-08-01T01:15:25;3.03;;;0.85;;
22415;SDS011;12204;50.600;4.608;2022-08-01T01:20:38;3.67;;;1.00;;
22415;SDS011;12204;50.600;4.608;2022-08-01T01:26:04;2.58;;;0.85;;
22415;SDS011;12204;50.600;4.608;2022-08-01T01:31:39;5.53;;;1.10;;
22415;SDS011;12204;50.600;4.608;2022-08-01T01:36:49;2.55;;;0.93;;
22415;SDS011;12204;50.600;4.608;2022-08-01T01:41:57;4.88;;;1.10;;
22415;SDS011;12204;50.600;4.608;2022-08-01T01:47:03;2.75;;;1.00;;
22415;SDS011;12204;50.600;4.608;2022-08-01T01:52:08;4.47;;;1.10;;
22415;SDS011;12204;50.600;4.608;2022-08-01T01:57:12;5.82;;;1.08;;
22415;SDS011;12204;50.600;4.608;2022-08-01T02:02:19;3.22;;;1.20;;
22415;SDS011;12204;50.600;4.608;2022-08-01T02:07:25;2.08;;;1.05;;
22415;SDS011;12204;50.600;4.608;2022-08-01T02:12:30;5.55;;;1.15;;
22415;SDS011;12204;50.600;4.608;2022-08-01T02:22:47;3.15;;;1.20;;
22415;SDS011;12204;50.600;4.608;2022-08-01T02:27:56;2.55;;;1.10;;
22415;SDS011;12204;50.600;4.608;2022-08-01T02:33:08;3.13;;;1.30;;
22415;SDS011;12204;50.600;4.608;2022-08-01T02:38:20;3.75;;;1.50;;
22415;SDS011;12204;50.600;4.608;2022-08-01T02:43:28;4.13;;;1.30;;
22415;SDS011;12204;50.600;4.608;2022-08-01T02:48:38;4.43;;;1.30;;
22415;SDS011;12204;50.600;4.608;2022-08-01T02:53:45;3.08;;;1.40;;
22415;SDS011;12204;50.600;4.608;2022-08-01T02:58:49;5.50;;;1.55;;
22415;SDS011;12204;50.600;4.608;2022-08-01T03:03:58;4.78;;;1.60;;
22415;SDS011;12204;50.600;4.608;2022-08-01T03:09:02;8.77;;;1.58;;
22415;SDS011;12204;50.600;4.608;2022-08-01T03:14:07;5.03;;;1.63;;
22415;SDS011;12204;50.600;4.608;2022-08-01T03:19:14;5.50;;;1.60;;
22415;SDS011;12204;50.600;4.608;2022-08-01T03:24:21;6.32;;;1.70;;
22415;SDS011;12204;50.600;4.608;2022-08-01T03:29:27;3.53;;;1.60;;
22415;SDS011;12204;50.600;4.608;2022-08-01T03:34:33;9.30;;;1.73;;
22415;SDS011;12204;50.600;4.608;2022-08-01T03:39:40;6.07;;;1.83;;
22415;SDS011;12204;50.600;4.608;2022-08-01T03:44:51;4.00;;;1.80;;
22415;SDS011;12204;50.600;4.608;2022-08-01T03:50:03;4.15;;;1.80;;
22415;SDS011;12204;50.600;4.608;2022-08-01T03:55:12;4.72;;;1.80;;
22415;SDS011;12204;50.600;4.608;2022-08-01T04:00:19;4.90;;;1.97;;
22415;SDS011;12204;50.600;4.608;2022-08-01T04:05:25;5.25;;;1.98;;
22415;SDS011;12204;50.600;4.608;2022-08-01T04:10:29;6.72;;;2.35;;
22415;SDS011;12204;50.600;4.608;2022-08-01T04:15:33;6.70;;;2.22;;
22415;SDS011;12204;50.600;4.608;2022-08-01T04:20:38;6.63;;;2.13;;
22415;SDS011;12204;50.600;4.608;2022-08-01T04:25:42;5.82;;;2.30;;
22415;SDS011;12204;50.600;4.608;2022-08-01T04:30:49;4.90;;;2.15;;
22415;SDS011;12204;50.600;4.608;2022-08-01T04:36:03;5.82;;;2.40;;
22415;SDS011;12204;50.600;4.608;2022-08-01T04:41:11;6.68;;;2.55;;
22415;SDS011;12204;50.600;4.608;2022-08-01T04:46:16;6.43;;;2.70;;
22415;SDS011;12204;50.600;4.608;2022-08-01T04:51:23;6.03;;;2.60;;
22415;SDS011;12204;50.600;4.608;2022-08-01T04:56:26;6.38;;;2.80;;
22415;SDS011;12204;50.600;4.608;2022-08-01T05:01:30;7.13;;;2.80;;
22415;SDS011;12204;50.600;4.608;2022-08-01T05:06:35;9.73;;;2.90;;
22415;SDS011;12204;50.600;4.608;2022-08-01T05:11:39;9.65;;;3.30;;
22415;SDS011;12204;50.600;4.608;2022-08-01T05:16:42;9.05;;;3.40;;
22415;SDS011;12204;50.600;4.608;2022-08-01T05:21:48;10.13;;;3.30;;
22415;SDS011;12204;50.600;4.608;2022-08-01T05:26:51;9.57;;;3.25;;
22415;SDS011;12204;50.600;4.608;2022-08-01T05:31:55;9.40;;;3.72;;
22415;SDS011;12204;50.600;4.608;2022-08-01T05:37:01;9.07;;;3.55;;
22415;SDS011;12204;50.600;4.608;2022-08-01T05:42:05;7.97;;;3.35;;
22415;SDS011;12204;50.600;4.608;2022-08-01T05:47:09;7.93;;;3.22;;
22415;SDS011;12204;50.600;4.608;2022-08-01T05:52:14;8.90;;;3.67;;
22415;SDS011;12204;50.600;4.608;2022-08-01T05:57:18;10.70;;;3.60;;
22415;SDS011;12204;50.600;4.608;2022-08-01T06:02:23;8.80;;;3.47;;
22415;SDS011;12204;50.600;4.608;2022-08-01T06:07:28;7.97;;;3.30;;
22415;SDS011;12204;50.600;4.608;2022-08-01T06:12:32;9.70;;;3.60;;
22415;SDS011;12204;50.600;4.608;2022-08-01T06:17:36;8.10;;;3.47;;
22415;SDS011;12204;50.600;4.608;2022-08-01T06:22:41;8.93;;;4.00;;
22415;SDS011;12204;50.600;4.608;2022-08-01T06:27:52;8.93;;;3.97;;
22415;SDS011;12204;50.600;4.608;2022-08-01T06:32:56;8.75;;;3.60;;
22415;SDS011;12204;50.600;4.608;2022-08-01T06:38:03;9.25;;;3.85;;
22415;SDS011;12204;50.600;4.608;2022-08-01T06:43:06;7.35;;;3.65;;
22415;SDS011;12204;50.600;4.608;2022-08-01T06:48:11;7.22;;;3.72;;
22415;SDS011;12204;50.600;4.608;2022-08-01T06:53:16;7.53;;;3.60;;
22415;SDS011;12204;50.600;4.608;2022-08-01T06:58:20;6.25;;;3.30;;
22415;SDS011;12204;50.600;4.608;2022-08-01T07:03:32;6.45;;;3.30;;
22415;SDS011;12204;50.600;4.608;2022-08-01T07:08:55;6.18;;;2.95;;
22415;SDS011;12204;50.600;4.608;2022-08-01T07:14:07;5.45;;;2.80;;
22415;SDS011;12204;50.600;4.608;2022-08-01T07:19:11;5.95;;;2.88;;
22415;SDS011;12204;50.600;4.608;2022-08-01T07:24:16;5.65;;;2.60;;
22415;SDS011;12204;50.600;4.608;2022-08-01T07:29:22;5.23;;;2.40;;
22415;SDS011;12204;50.600;4.608;2022-08-01T07:34:26;5.70;;;2.75;;
22415;SDS011;12204;50.600;4.608;2022-08-01T07:39:31;6.32;;;2.90;;
22415;SDS011;12204;50.600;4.608;2022-08-01T07:44:35;6.00;;;2.97;;
22415;SDS011;12204;50.600;4.608;2022-08-01T07:49:39;4.55;;;2.40;;
22415;SDS011;12204;50.600;4.608;2022-08-01T07:54:44;5.40;;;2.40;;
22415;SDS011;12204;50.600;4.608;2022-08-01T07:59:52;6.05;;;2.60;;
22415;SDS011;12204;50.600;4.608;2022-08-01T08:04:56;5.72;;;2.90;;
22415;SDS011;12204;50.600;4.608;2022-08-01T08:10:01;6.18;;;2.75;;
22415;SDS011;12204;50.600;4.608;2022-08-01T08:15:06;6.07;;;2.90;;
22415;SDS011;12204;50.600;4.608;2022-08-01T08:20:12;6.35;;;3.20;;
22415;SDS011;12204;50.600;4.608;2022-08-01T08:25:18;5.97;;;2.80;;
22415;SDS011;12204;50.600;4.608;2022-08-01T08:30:27;7.65;;;2.78;;
22415;SDS011;12204;50.600;4.608;2022-08-01T08:35:30;6.15;;;3.15;;
22415;SDS011;12204;50.600;4.608;2022-08-01T08:40:55;6.15;;;2.92;;
22415;SDS011;12204;50.600;4.608;2022-08-01T08:46:01;6.37;;;3.20;;
22415;SDS011;12204;50.600;4.608;2022-08-01T08:51:07;6.30;;;3.17;;
22415;SDS011;12204;50.600;4.608;2022-08-01T08:56:13;21.13;;;3.63;;
22415;SDS011;12204;50.600;4.608;2022-08-01T09:01:18;13.20;;;3.50;;
22415;SDS011;12204;50.600;4.608;2022-08-01T09:06:23;11.27;;;2.92;;
22415;SDS011;12204;50.600;4.608;2022-08-01T09:11:29;11.77;;;3.38;;
22415;SDS011;12204;50.600;4.608;2022-08-01T09:16:33;10.07;;;3.20;;
22415;SDS011;12204;50.600;4.608;2022-08-01T09:21:54;7.15;;;3.28;;
22415;SDS011;12204;50.600;4.608;2022-08-01T09:27:14;7.13;;;3.35;;
22415;SDS011;12204;50.600;4.608;2022-08-01T09:32:23;5.85;;;2.80;;
22415;SDS011;12204;50.600;4.608;2022-08-01T09:37:29;7.87;;;2.90;;
22415;SDS011;12204;50.600;4.608;2022-08-01T09:42:39;6.47;;;3.33;;
22415;SDS011;12204;50.600;4.608;2022-08-01T09:47:43;6.13;;;2.78;;
22415;SDS011;12204;50.600;4.608;2022-08-01T09:52:52;9.27;;;3.00;;
22415;SDS011;12204;50.600;4.608;2022-08-01T09:57:58;7.95;;;4.25;;
22415;SDS011;12204;50.600;4.608;2022-08-01T10:03:18;10.55;;;4.10;;
22415;SDS011;12204;50.600;4.608;2022-08-01T10:08:24;7.63;;;3.60;;
22415;SDS011;12204;50.600;4.608;2022-08-01T10:13:30;7.05;;;3.00;;
22415;SDS011;12204;50.600;4.608;2022-08-01T10:18:37;7.90;;;2.95;;
22415;SDS011;12204;50.600;4.608;2022-08-01T10:23:44;6.38;;;2.70;;
22415;SDS011;12204;50.600;4.608;2022-08-01T10:28:53;6.53;;;2.80;;
22415;SDS011;12204;50.600;4.608;2022-08-01T10:34:01;4.90;;;2.50;;
22415;SDS011;12204;50.600;4.608;2022-08-01T10:39:05;6.13;;;2.42;;
22415;SDS011;12204;50.600;4.608;2022-08-01T10:44:10;5.25;;;2.40;;
22415;SDS011;12204;50.600;4.608;2022-08-01T10:49:15;4.97;;;2.00;;
22415;SDS011;12204;50.600;4.608;2022-08-01T10:54:23;5.43;;;2.15;;
22415;SDS011;12204;50.600;4.608;2022-08-01T10:59:30;5.53;;;2.10;;
22415;SDS011;12204;50.600;4.608;2022-08-01T11:04:54;4.47;;;2.00;;
22415;SDS011;12204;50.600;4.608;2022-08-01T11:10:08;4.70;;;1.92;;
22415;SDS011;12204;50.600;4.608;2022-08-01T11:15:26;7.05;;;2.10;;
22415;SDS011;12204;50.600;4.608;2022-08-01T11:20:32;4.85;;;1.98;;
22415;SDS011;12204;50.600;4.608;2022-08-01T11:31:31;6.05;;;1.70;;
22415;SDS011;12204;50.600;4.608;2022-08-01T11:36:38;4.80;;;1.80;;
22415;SDS011;12204;50.600;4.608;2022-08-01T11:42:18;9.43;;;1.80;;
22415;SDS011;12204;50.600;4.608;2022-08-01T11:52:56;4.13;;;1.40;;
22415;SDS011;12204;50.600;4.608;2022-08-01T11:58:02;4.65;;;1.80;;
22415;SDS011;12204;50.600;4.608;2022-08-01T12:03:25;5.60;;;1.90;;
22415;SDS011;12204;50.600;4.608;2022-08-01T12:08:34;6.95;;;1.52;;
22415;SDS011;12204;50.600;4.608;2022-08-01T12:13:39;3.42;;;1.50;;
22415;SDS011;12204;50.600;4.608;2022-08-01T12:18:46;2.87;;;1.30;;
22415;SDS011;12204;50.600;4.608;2022-08-01T12:23:59;4.30;;;1.52;;
22415;SDS011;12204;50.600;4.608;2022-08-01T12:29:03;5.00;;;1.70;;
22415;SDS011;12204;50.600;4.608;2022-08-01T12:34:25;4.55;;;1.52;;
22415;SDS011;12204;50.600;4.608;2022-08-01T12:39:31;3.30;;;1.40;;
22415;SDS011;12204;50.600;4.608;2022-08-01T12:44:42;4.63;;;1.33;;
22415;SDS011;12204;50.600;4.608;2022-08-01T12:49:51;4.30;;;1.30;;
22415;SDS011;12204;50.600;4.608;2022-08-01T12:55:06;3.33;;;1.33;;
22415;SDS011;12204;50.600;4.608;2022-08-01T13:00:18;3.17;;;1.20;;
22415;SDS011;12204;50.600;4.608;2022-08-01T13:05:26;2.70;;;1.20;;
22415;SDS011;12204;50.600;4.608;2022-08-01T13:10:30;1.92;;;1.10;;
22415;SDS011;12204;50.600;4.608;2022-08-01T13:15:34;2.28;;;1.27;;
22415;SDS011;12204;50.600;4.608;2022-08-01T13:20:44;2.80;;;1.10;;
22415;SDS011;12204;50.600;4.608;2022-08-01T13:25:53;2.47;;;1.00;;
22415;SDS011;12204;50.600;4.608;2022-08-01T13:30:58;2.13;;;1.15;;
22415;SDS011;12204;50.600;4.608;2022-08-01T13:36:07;2.60;;;1.13;;
22415;SDS011;12204;50.600;4.608;2022-08-01T13:41:11;3.05;;;1.30;;
22415;SDS011;12204;50.600;4.608;2022-08-01T13:46:17;3.45;;;1.27;;
22415;SDS011;12204;50.600;4.608;2022-08-01T13:51:22;2.67;;;1.33;;
22415;SDS011;12204;50.600;4.608;2022-08-01T13:56:26;4.05;;;1.20;;
22415;SDS011;12204;50.600;4.608;2022-08-01T14:01:30;2.03;;;1.00;;
22415;SDS011;12204;50.600;4.608;2022-08-01T14:06:36;2.20;;;0.90;;
22415;SDS011;12204;50.600;4.608;2022-08-01T14:11:42;3.28;;;1.10;;
22415;SDS011;12204;50.600;4.608;2022-08-01T14:16:46;2.15;;;1.15;;
22415;SDS011;12204;50.600;4.608;2022-08-01T14:21:52;3.58;;;1.00;;
22415;SDS011;12204;50.600;4.608;2022-08-01T14:26:58;2.95;;;1.00;;
22415;SDS011;12204;50.600;4.608;2022-08-01T14:32:02;4.55;;;0.90;;
22415;SDS011;12204;50.600;4.608;2022-08-01T14:37:09;3.15;;;1.10;;
22415;SDS011;12204;50.600;4.608;2022-08-01T14:42:14;2.97;;;1.03;;
22415;SDS011;12204;50.600;4.608;2022-08-01T14:47:17;2.72;;;1.00;;
22415;SDS011;12204;50.600;4.608;2022-08-01T14:52:23;3.05;;;1.20;;
22415;SDS011;12204;50.600;4.608;2022-08-01T14:57:27;1.63;;;0.95;;
22415;SDS011;12204;50.600;4.608;2022-08-01T15:02:31;1.98;;;0.90;;
22415;SDS011;12204;50.600;4.608;2022-08-01T15:07:36;4.05;;;0.90;;
22415;SDS011;12204;50.600;4.608;2022-08-01T15:12:52;3.42;;;1.00;;
22415;SDS011;12204;50.600;4.608;2022-08-01T15:17:57;3.00;;;0.80;;
22415;SDS011;12204;50.600;4.608;2022-08-01T15:23:02;3.28;;;0.82;;
22415;SDS011;12204;50.600;4.608;2022-08-01T15:28:05;3.75;;;0.90;;
22415;SDS011;12204;50.600;4.608;2022-08-01T15:33:09;4.80;;;0.90;;
22415;SDS011;12204;50.600;4.608;2022-08-01T15:38:15;2.15;;;0.98;;
22415;SDS011;12204;50.600;4.608;2022-08-01T15:43:20;5.65;;;1.05;;
22415;SDS011;12204;50.600;4.608;2022-08-01T15:48:27;4.45;;;0.80;;
22415;SDS011;12204;50.600;4.608;2022-08-01T15:53:32;2.22;;;0.82;;
22415;SDS011;12204;50.600;4.608;2022-08-01T15:58:36;4.45;;;0.90;;
22415;SDS011;12204;50.600;4.608;2022-08-01T16:03:39;4.40;;;1.10;;
22415;SDS011;12204;50.600;4.608;2022-08-01T16:08:44;2.45;;;0.90;;
22415;SDS011;12204;50.600;4.608;2022-08-01T16:13:48;31.98;;;2.95;;
22415;SDS011;12204;50.600;4.608;2022-08-01T16:18:52;17.10;;;2.05;;
22415;SDS011;12204;50.600;4.608;2022-08-01T16:23:57;20.00;;;1.95;;
22415;SDS011;12204;50.600;4.608;2022-08-01T16:29:01;7.13;;;1.50;;
22415;SDS011;12204;50.600;4.608;2022-08-01T16:34:04;6.68;;;1.20;;
22415;SDS011;12204;50.600;4.608;2022-08-01T16:39:11;6.85;;;1.27;;
22415;SDS011;12204;50.600;4.608;2022-08-01T16:44:21;7.35;;;1.20;;
22415;SDS011;12204;50.600;4.608;2022-08-01T16:49:34;4.82;;;1.08;;
22415;SDS011;12204;50.600;4.608;2022-08-01T16:54:39;2.95;;;1.00;;
22415;SDS011;12204;50.600;4.608;2022-08-01T16:59:43;3.70;;;1.00;;
22415;SDS011;12204;50.600;4.608;2022-08-01T17:04:46;3.63;;;1.05;;
22415;SDS011;12204;50.600;4.608;2022-08-01T17:09:51;11.73;;;1.20;;
22415;SDS011;12204;50.600;4.608;2022-08-01T17:14:55;7.88;;;1.20;;
22415;SDS011;12204;50.600;4.608;2022-08-01T17:19:59;7.43;;;1.20;;
22415;SDS011;12204;50.600;4.608;2022-08-01T17:25:11;4.10;;;1.00;;
22415;SDS011;12204;50.600;4.608;2022-08-01T17:30:16;4.28;;;0.82;;
22415;SDS011;12204;50.600;4.608;2022-08-01T17:35:21;5.07;;;1.00;;
22415;SDS011;12204;50.600;4.608;2022-08-01T17:45:41;5.22;;;1.00;;
22415;SDS011;12204;50.600;4.608;2022-08-01T17:50:51;4.88;;;1.10;;
22415;SDS011;12204;50.600;4.608;2022-08-01T17:55:59;6.35;;;1.05;;
22415;SDS011;12204;50.600;4.608;2022-08-01T18:01:06;4.50;;;1.05;;
22415;SDS011;12204;50.600;4.608;2022-08-01T18:06:14;9.82;;;3.35;;
22415;SDS011;12204;50.600;4.608;2022-08-01T18:11:22;11.13;;;3.42;;
22415;SDS011;12204;50.600;4.608;2022-08-01T18:16:28;12.82;;;3.85;;
22415;SDS011;12204;50.600;4.608;2022-08-01T18:21:33;11.93;;;3.60;;
22415;SDS011;12204;50.600;4.608;2022-08-01T18:26:45;13.98;;;3.88;;
22415;SDS011;12204;50.600;4.608;2022-08-01T18:31:52;9.25;;;3.20;;
22415;SDS011;12204;50.600;4.608;2022-08-01T18:36:56;8.10;;;3.33;;
22415;SDS011;12204;50.600;4.608;2022-08-01T18:42:02;11.43;;;3.30;;
22415;SDS011;12204;50.600;4.608;2022-08-01T18:47:07;9.18;;;3.05;;
22415;SDS011;12204;50.600;4.608;2022-08-01T18:52:15;8.77;;;2.70;;
22415;SDS011;12204;50.600;4.608;2022-08-01T19:02:44;10.32;;;2.60;;
22415;SDS011;12204;50.600;4.608;2022-08-01T19:07:53;9.80;;;2.70;;
22415;SDS011;12204;50.600;4.608;2022-08-01T19:13:07;6.47;;;2.30;;
22415;SDS011;12204;50.600;4.608;2022-08-01T19:18:15;5.35;;;1.95;;
22415;SDS011;12204;50.600;4.608;2022-08-01T19:23:26;7.70;;;2.08;;
22415;SDS011;12204;50.600;4.608;2022-08-01T19:28:50;5.78;;;2.13;;
22415;SDS011;12204;50.600;4.608;2022-08-01T19:34:02;4.13;;;1.70;;
22415;SDS011;12204;50.600;4.608;2022-08-01T19:39:11;6.30;;;1.77;;
22415;SDS011;12204;50.600;4.608;2022-08-01T19:44:18;4.40;;;1.58;;
22415;SDS011;12204;50.600;4.608;2022-08-01T19:49:25;6.70;;;1.63;;
22415;SDS011;12204;50.600;4.608;2022-08-01T19:54:32;6.20;;;1.70;;
22415;SDS011;12204;50.600;4.608;2022-08-01T19:59:44;3.65;;;1.42;;
22415;SDS011;12204;50.600;4.608;2022-08-01T20:04:50;6.53;;;1.58;;
22415;SDS011;12204;50.600;4.608;2022-08-01T20:09:54;3.58;;;1.30;;
22415;SDS011;12204;50.600;4.608;2022-08-01T20:14:59;3.90;;;1.30;;
22415;SDS011;12204;50.600;4.608;2022-08-01T20:20:05;5.35;;;1.40;;
22415;SDS011;12204;50.600;4.608;2022-08-01T20:25:13;4.22;;;1.42;;
22415;SDS011;12204;50.600;4.608;2022-08-01T20:30:19;2.92;;;1.35;;
22415;SDS011;12204;50.600;4.608;2022-08-01T20:35:30;3.95;;;1.40;;
22415;SDS011;12204;50.600;4.608;2022-08-01T20:40:57;3.83;;;1.10;;
22415;SDS011;12204;50.600;4.608;2022-08-01T20:46:08;4.53;;;1.13;;
22415;SDS011;12204;50.600;4.608;2022-08-01T20:51:14;4.72;;;1.10;;
22415;SDS011;12204;50.600;4.608;2022-08-01T20:56:27;4.00;;;1.33;;
22415;SDS011;12204;50.600;4.608;2022-08-01T21:01:38;4.43;;;1.30;;
22415;SDS011;12204;50.600;4.608;2022-08-01T21:06:57;4.07;;;1.38;;
22415;SDS011;12204;50.600;4.608;2022-08-01T21:12:24;3.03;;;1.10;;
22415;SDS011;12204;50.600;4.608;2022-08-01T21:17:36;3.75;;;1.27;;
22415;SDS011;12204;50.600;4.608;2022-08-01T21:22:54;3.38;;;1.30;;
22415;SDS011;12204;50.600;4.608;2022-08-01T21:28:11;3.22;;;1.33;;
22415;SDS011;12204;50.600;4.608;2022-08-01T21:33:19;3.40;;;1.38;;
22415;SDS011;12204;50.600;4.608;2022-08-01T21:38:27;3.13;;;1.23;;
22415;SDS011;12204;50.600;4.608;2022-08-01T21:43:36;3.15;;;1.35;;
22415;SDS011;12204;50.600;4.608;2022-08-01T21:48:46;3.97;;;1.50;;
22415;SDS011;12204;50.600;4.608;2022-08-01T21:53:55;5.18;;;1.40;;
22415;SDS011;12204;50.600;4.608;2022-08-01T21:59:14;14.60;;;2.05;;
22415;SDS011;12204;50.600;4.608;2022-08-01T22:04:27;9.57;;;1.88;;
22415;SDS011;12204;50.600;4.608;2022-08-01T22:09:58;7.68;;;1.80;;
22415;SDS011;12204;50.600;4.608;2022-08-01T22:15:10;5.75;;;2.15;;
22415;SDS011;12204;50.600;4.608;2022-08-01T22:20:16;11.05;;;1.98;;
22415;SDS011;12204;50.600;4.608;2022-08-01T22:25:25;12.88;;;2.10;;
22415;SDS011;12204;50.600;4.608;2022-08-01T22:30:33;11.52;;;2.10;;
22415;SDS011;12204;50.600;4.608;2022-08-01T22:35:43;7.47;;;2.15;;
22415;SDS011;12204;50.600;4.608;2022-08-01T22:40:51;8.43;;;1.92;;
22415;SDS011;12204;50.600;4.608;2022-08-01T22:46:06;7.75;;;2.10;;
22415;SDS011;12204;50.600;4.608;2022-08-01T22:51:36;7.00;;;2.08;;
22415;SDS011;12204;50.600;4.608;2022-08-01T22:56:57;7.00;;;2.20;;
22415;SDS011;12204;50.600;4.608;2022-08-01T23:02:08;9.05;;;2.10;;
22415;SDS011;12204;50.600;4.608;2022-08-01T23:07:18;5.93;;;2.17;;
22415;SDS011;12204;50.600;4.608;2022-08-01T23:12:30;7.10;;;1.90;;
22415;SDS011;12204;50.600;4.608;2022-08-01T23:17:35;5.57;;;1.77;;
22415;SDS011;12204;50.600;4.608;2022-08-01T23:22:38;5.72;;;1.73;;
22415;SDS011;12204;50.600;4.608;2022-08-01T23:27:45;7.20;;;2.00;;
22415;SDS011;12204;50.600;4.608;2022-08-01T23:33:06;4.85;;;1.80;;
22415;SDS011;12204;50.600;4.608;2022-08-01T23:38:15;5.63;;;1.60;;
22415;SDS011;12204;50.600;4.608;2022-08-01T23:43:22;8.32;;;1.70;;
22415;SDS011;12204;50.600;4.608;2022-08-01T23:48:25;5.30;;;1.67;;
22415;SDS011;12204;50.600;4.608;2022-08-01T23:53:29;4.20;;;1.48;;
22415;SDS011;12204;50.600;4.608;2022-08-01T23:58:37;5.35;;;1.60;;
